createdAt,value
2023-03-21T00:01:07.275Z,37.20
2023-03-21T00:03:43.375Z,37.40
2023-03-21T00:06:18.265Z,37.40
2023-03-21T00:08:53.529Z,37.50
2023-03-21T00:11:28.418Z,37.50
2023-03-21T00:14:03.502Z,37.60
2023-03-21T00:16:39.687Z,37.60
2023-03-21T00:19:15.941Z,37.60
2023-03-21T00:22:06.672Z,37.60
2023-03-21T00:24:42.717Z,37.70
2023-03-21T00:27:44.840Z,37.70
2023-03-21T00:30:15.319Z,37.80
2023-03-21T00:32:56.582Z,37.70
2023-03-21T00:38:27.198Z,37.90
2023-03-21T00:41:18.799Z,37.90
2023-03-21T00:43:59.560Z,37.80
2023-03-21T00:46:45.442Z,37.80
2023-03-21T00:49:24.181Z,37.80
2023-03-21T00:52:14.628Z,37.90
2023-03-21T00:54:51.223Z,37.90
2023-03-21T00:57:37.898Z,37.90
2023-03-21T01:00:16.157Z,38.00
2023-03-21T01:03:14.175Z,38.00
2023-03-21T01:06:05.651Z,38.00
2023-03-21T01:08:58.596Z,38.20
2023-03-21T01:11:34.943Z,38.40
2023-03-21T01:14:22.086Z,38.40
2023-03-21T01:16:57.659Z,38.50
2023-03-21T01:19:48.675Z,38.60
2023-03-21T01:22:25.972Z,38.70
2023-03-21T01:25:19.293Z,38.60
2023-03-21T01:27:56.115Z,38.60
2023-03-21T01:30:36.933Z,38.70
2023-03-21T01:33:19.224Z,38.70
2023-03-21T01:36:03.246Z,38.60
2023-03-21T01:38:45.920Z,38.80
2023-03-21T01:41:42.602Z,38.90
2023-03-21T01:44:28.359Z,39.00
2023-03-21T01:47:10.919Z,39.10
2023-03-21T01:50:08.919Z,39.30
2023-03-21T01:52:57.122Z,39.40
2023-03-21T01:55:37.202Z,39.60
2023-03-21T01:58:31.986Z,39.70
2023-03-21T02:01:15.918Z,39.80
2023-03-21T02:03:56.130Z,39.90
2023-03-21T02:07:24.286Z,39.90
2023-03-21T02:10:07.720Z,40.00
2023-03-21T02:12:42.807Z,39.90
2023-03-21T02:15:18.984Z,40.00
2023-03-21T02:18:33.448Z,40.20
2023-03-21T02:21:41.088Z,40.30
2023-03-21T02:25:01.368Z,40.40
2023-03-21T02:27:57.179Z,40.50
2023-03-21T02:31:07.276Z,40.50
2023-03-21T02:34:03.453Z,40.50
2023-03-21T02:37:28.952Z,40.50
2023-03-21T02:40:33.236Z,40.50
2023-03-21T02:43:37.426Z,40.40
2023-03-21T02:46:39.895Z,40.30
2023-03-21T02:49:41.951Z,40.30
2023-03-21T02:52:37.841Z,40.30
2023-03-21T02:55:22.773Z,40.50
2023-03-21T02:58:12.920Z,40.90
2023-03-21T03:00:56.180Z,40.70
2023-03-21T03:03:44.403Z,40.70
2023-03-21T03:06:25.578Z,40.90
2023-03-21T03:09:23.036Z,41.00
2023-03-21T03:12:42.803Z,41.10
2023-03-21T03:15:36.033Z,41.30
2023-03-21T03:18:42.326Z,41.50
2023-03-21T03:21:28.188Z,41.60
2023-03-21T03:24:20.480Z,41.80
2023-03-21T03:27:10.864Z,42.00
2023-03-21T03:29:48.889Z,42.10
2023-03-21T03:32:38.245Z,42.20
2023-03-21T03:35:17.748Z,42.40
2023-03-21T03:38:01.319Z,42.40
2023-03-21T03:40:53.192Z,42.60
2023-03-21T03:43:50.989Z,43.00
2023-03-21T03:46:49.025Z,43.20
2023-03-21T03:49:29.569Z,43.30
2023-03-21T03:52:29.705Z,43.30
2023-03-21T03:55:14.658Z,43.40
2023-03-21T03:57:52.684Z,43.50
2023-03-21T04:00:32.573Z,43.60
2023-03-21T04:03:09.816Z,43.60
2023-03-21T04:05:47.657Z,43.60
2023-03-21T04:08:23.646Z,43.50
2023-03-21T04:11:02.813Z,43.50
2023-03-21T04:13:40.044Z,43.50
2023-03-21T04:16:17.456Z,43.60
2023-03-21T04:18:52.470Z,43.80
2023-03-21T04:21:28.979Z,43.90
2023-03-21T04:24:04.577Z,43.90
2023-03-21T04:26:41.334Z,43.90
2023-03-21T04:29:48.679Z,43.90
2023-03-21T04:32:39.473Z,43.90
2023-03-21T04:35:20.242Z,43.90
2023-03-21T04:37:56.230Z,44.00
2023-03-21T04:40:31.167Z,43.90
2023-03-21T04:43:06.212Z,44.00
2023-03-21T04:45:45.781Z,44.00
2023-03-21T04:48:24.394Z,44.10
2023-03-21T04:51:00.104Z,44.30
2023-03-21T04:53:38.443Z,44.80
2023-03-21T04:56:14.024Z,44.70
2023-03-21T04:58:48.936Z,44.70
2023-03-21T05:01:23.937Z,44.90
2023-03-21T05:04:01.488Z,45.00
2023-03-21T05:06:36.797Z,45.20
2023-03-21T05:09:12.576Z,45.50
2023-03-21T05:11:47.790Z,45.80
2023-03-21T05:14:26.509Z,45.90
2023-03-21T05:17:05.480Z,46.20
2023-03-21T05:19:42.611Z,46.50
2023-03-21T05:22:19.262Z,46.90
2023-03-21T05:24:55.376Z,47.20
2023-03-21T05:28:02.004Z,47.50
2023-03-21T05:30:38.458Z,47.70
2023-03-21T05:33:15.300Z,47.70
2023-03-21T05:35:51.856Z,47.50
2023-03-21T05:38:27.048Z,47.10
2023-03-21T05:41:02.600Z,47.00
2023-03-21T05:43:39.750Z,46.90
2023-03-21T05:46:15.389Z,46.70
2023-03-21T05:48:50.804Z,46.70
2023-03-21T05:51:26.392Z,46.70
2023-03-21T05:54:01.429Z,46.50
2023-03-21T05:56:36.414Z,46.40
2023-03-21T05:59:14.061Z,46.20
2023-03-21T06:01:52.302Z,45.90
2023-03-21T06:04:27.701Z,45.90
2023-03-21T06:07:02.682Z,45.50
2023-03-21T06:09:37.789Z,45.30
2023-03-21T06:12:14.004Z,45.20
2023-03-21T06:15:08.950Z,45.10
2023-03-21T06:18:01.794Z,44.80
2023-03-21T06:20:37.168Z,45.10
2023-03-21T06:23:17.966Z,44.60
2023-03-21T06:25:53.116Z,44.50
2023-03-21T06:28:28.650Z,44.30
2023-03-21T06:31:03.979Z,44.10
2023-03-21T06:33:41.850Z,44.10
2023-03-21T06:36:16.759Z,44.00
2023-03-21T06:38:51.985Z,43.90
2023-03-21T06:41:26.943Z,43.80
2023-03-21T06:44:07.878Z,43.70
2023-03-21T06:46:53.244Z,43.60
2023-03-21T06:49:28.422Z,43.50
2023-03-21T06:52:07.188Z,43.40
2023-03-21T06:54:42.610Z,43.20
2023-03-21T06:57:21.841Z,43.00
2023-03-21T06:59:57.507Z,43.00
2023-03-21T07:02:32.714Z,42.80
2023-03-21T07:05:16.932Z,42.50
2023-03-21T07:07:52.334Z,42.20
2023-03-21T07:10:27.317Z,42.00
2023-03-21T07:13:10.411Z,41.80
2023-03-21T07:16:01.862Z,41.60
2023-03-21T07:18:37.201Z,41.60
2023-03-21T07:21:12.149Z,41.60
2023-03-21T07:23:50.391Z,41.50
2023-03-21T07:26:25.462Z,41.50
2023-03-21T07:29:00.556Z,41.40
2023-03-21T07:31:36.629Z,41.30
2023-03-21T07:34:11.715Z,41.30
2023-03-21T07:36:47.573Z,41.30
2023-03-21T07:39:23.678Z,41.20
2023-03-21T07:42:01.057Z,41.00
2023-03-21T07:44:55.060Z,40.90
2023-03-21T07:47:30.535Z,40.60
2023-03-21T07:50:08.414Z,40.30
2023-03-21T07:52:43.633Z,40.20
2023-03-21T07:55:19.381Z,39.90
2023-03-21T07:57:54.471Z,39.80
2023-03-21T08:00:29.720Z,39.50
2023-03-21T08:03:04.688Z,39.80
2023-03-21T08:05:41.029Z,38.90
2023-03-21T08:08:16.202Z,39.30
2023-03-21T08:10:51.049Z,39.20
2023-03-21T08:13:26.108Z,39.20
2023-03-21T08:16:01.160Z,39.20
2023-03-21T08:18:36.295Z,39.00
2023-03-21T08:21:11.548Z,38.60
2023-03-21T08:23:46.414Z,38.20
2023-03-21T08:26:21.439Z,38.10
2023-03-21T08:28:56.438Z,38.00
2023-03-21T08:31:31.373Z,37.80
2023-03-21T08:34:07.468Z,37.60
2023-03-21T08:36:42.444Z,37.40
2023-03-21T08:39:17.483Z,37.30
2023-03-21T08:41:52.460Z,37.30
2023-03-21T08:44:27.594Z,37.20
2023-03-21T08:47:02.504Z,37.20
2023-03-21T08:49:37.628Z,36.50
2023-03-21T08:52:12.714Z,36.60
2023-03-21T08:54:48.510Z,36.50
2023-03-21T08:57:23.581Z,36.10
2023-03-21T08:59:58.620Z,36.10
2023-03-21T09:02:33.546Z,36.00
2023-03-21T09:05:10.244Z,35.80
2023-03-21T09:07:45.844Z,35.20
2023-03-21T09:10:23.263Z,34.90
2023-03-21T09:12:58.203Z,34.70
2023-03-21T09:15:35.329Z,34.20
2023-03-21T09:18:13.396Z,34.00
2023-03-21T09:20:50.337Z,33.80
2023-03-21T09:23:25.238Z,33.70
2023-03-21T09:26:00.123Z,33.80
2023-03-21T09:28:37.509Z,33.70
2023-03-21T09:31:14.612Z,33.20
2023-03-21T09:33:51.451Z,32.90
2023-03-21T09:36:27.257Z,32.70
2023-03-21T09:39:04.013Z,32.20
2023-03-21T09:42:28.274Z,31.60
2023-03-21T09:45:16.140Z,31.10
2023-03-21T09:47:54.208Z,30.80
2023-03-21T09:50:36.276Z,31.00
2023-03-21T09:53:28.241Z,31.00
2023-03-21T09:56:05.311Z,31.00
2023-03-21T09:58:46.931Z,30.70
2023-03-21T10:01:32.852Z,30.00
2023-03-21T10:04:16.712Z,29.50
2023-03-21T10:06:59.365Z,29.30
2023-03-21T10:09:34.811Z,29.50
2023-03-21T10:12:22.357Z,29.40
2023-03-21T10:15:00.949Z,29.20
2023-03-21T10:17:58.575Z,28.10
2023-03-21T10:20:36.679Z,28.70
2023-03-21T10:23:17.263Z,29.00
2023-03-21T10:25:58.549Z,29.30
2023-03-21T10:28:51.982Z,29.30
2023-03-21T10:31:30.121Z,28.80
2023-03-21T10:34:17.194Z,28.50
2023-03-21T10:36:52.195Z,27.80
2023-03-21T10:39:40.313Z,28.40
2023-03-21T10:42:32.729Z,27.40
2023-03-21T10:45:17.590Z,27.30
2023-03-21T10:47:53.253Z,26.80
2023-03-21T10:50:30.202Z,27.00
2023-03-21T10:53:19.204Z,28.10
2023-03-21T10:55:59.181Z,28.20
2023-03-21T10:58:43.241Z,28.10
2023-03-21T11:01:31.106Z,28.10
2023-03-21T11:04:16.544Z,27.40
2023-03-21T11:06:57.995Z,26.50
2023-03-21T11:09:47.827Z,26.70
2023-03-21T11:12:41.283Z,26.90
2023-03-21T11:15:52.230Z,27.30
2023-03-21T11:18:33.044Z,27.50
2023-03-21T11:21:12.143Z,27.20
2023-03-21T11:23:50.048Z,27.60
2023-03-21T11:26:36.563Z,27.70
2023-03-21T11:29:33.071Z,27.60
2023-03-21T11:32:34.972Z,27.30
2023-03-21T11:35:20.731Z,27.40
2023-03-21T11:37:56.539Z,26.90
2023-03-21T11:40:36.882Z,26.90
2023-03-21T11:43:18.053Z,27.30
2023-03-21T11:46:14.835Z,27.00
2023-03-21T11:48:50.670Z,26.90
2023-03-21T11:51:43.913Z,27.10
2023-03-21T11:54:33.452Z,27.60
2023-03-21T11:57:31.849Z,27.30
2023-03-21T12:00:17.969Z,27.20
2023-03-21T12:03:38.138Z,27.10
2023-03-21T12:06:26.425Z,27.40
2023-03-21T12:09:11.617Z,27.10
2023-03-21T12:12:04.966Z,26.40
2023-03-21T12:15:18.654Z,26.80
2023-03-21T12:18:43.586Z,26.60
2023-03-21T12:21:34.776Z,26.60
2023-03-21T12:24:27.223Z,27.10
2023-03-21T12:27:29.428Z,27.30
2023-03-21T12:30:32.393Z,27.40
2023-03-21T12:33:31.914Z,27.80
2023-03-21T12:36:18.290Z,27.50
2023-03-21T12:39:39.171Z,28.00
2023-03-21T12:42:41.709Z,27.40
2023-03-21T12:45:27.509Z,27.00
2023-03-21T12:48:47.374Z,26.90
2023-03-21T12:51:35.286Z,26.60
2023-03-21T12:54:38.027Z,26.20
2023-03-21T12:57:20.042Z,27.20
2023-03-21T13:00:00.052Z,27.30
2023-03-21T13:02:41.039Z,27.30
2023-03-21T13:05:41.056Z,27.30
2023-03-21T13:08:53.332Z,26.90
2023-03-21T13:11:31.083Z,27.00
2023-03-21T13:14:25.669Z,26.70
2023-03-21T13:17:30.935Z,27.20
2023-03-21T13:20:41.135Z,27.70
2023-03-21T13:23:21.164Z,27.20
2023-03-21T13:25:57.842Z,26.50
2023-03-21T13:28:36.296Z,25.90
2023-03-21T13:31:25.652Z,26.00
2023-03-21T13:34:00.549Z,26.00
2023-03-21T13:36:38.112Z,26.60
2023-03-21T13:39:26.605Z,27.00
2023-03-21T13:42:06.529Z,27.00
2023-03-21T13:44:52.938Z,26.90
2023-03-21T13:48:06.002Z,26.90
2023-03-21T13:51:04.871Z,27.10
2023-03-21T13:53:45.148Z,26.90
2023-03-21T13:56:22.745Z,26.90
2023-03-21T13:59:03.681Z,26.40
2023-03-21T14:01:58.781Z,26.50
2023-03-21T14:04:42.443Z,26.90
2023-03-21T14:07:46.462Z,27.10
2023-03-21T14:10:31.430Z,27.70
2023-03-21T14:13:09.929Z,27.30
2023-03-21T14:15:55.628Z,27.10
2023-03-21T14:19:01.462Z,27.10
2023-03-21T14:21:30.332Z,27.30
2023-03-21T14:24:12.543Z,27.10
2023-03-21T14:26:51.984Z,26.70
2023-03-21T14:29:33.541Z,26.60
2023-03-21T14:32:22.672Z,26.70
2023-03-21T14:35:01.114Z,26.70
2023-03-21T14:37:42.525Z,27.20
2023-03-21T14:40:29.132Z,27.00
2023-03-21T14:43:06.258Z,27.20
2023-03-21T14:45:41.370Z,26.90
2023-03-21T14:48:17.252Z,26.70
2023-03-21T14:50:56.346Z,26.60
2023-03-21T14:53:37.161Z,27.00
2023-03-21T14:56:21.360Z,27.10
2023-03-21T14:58:56.930Z,27.10
2023-03-21T15:01:34.753Z,26.90
2023-03-21T15:04:14.324Z,26.30
2023-03-21T15:06:52.999Z,25.90
2023-03-21T15:09:30.816Z,25.90
2023-03-21T15:12:09.220Z,26.20
2023-03-21T15:14:44.188Z,26.40
2023-03-21T15:17:20.474Z,26.60
2023-03-21T15:19:56.052Z,27.20
2023-03-21T15:22:37.556Z,27.40
2023-03-21T15:25:22.892Z,27.50
2023-03-21T15:27:57.785Z,27.80
2023-03-21T15:30:34.206Z,27.10
2023-03-21T15:33:12.699Z,27.10
2023-03-21T15:35:56.550Z,27.00
2023-03-21T15:38:40.895Z,27.40
2023-03-21T15:41:21.783Z,27.90
2023-03-21T15:44:02.576Z,27.60
2023-03-21T15:46:52.109Z,27.30
2023-03-21T15:49:30.236Z,27.40
2023-03-21T15:52:16.049Z,27.50
2023-03-21T15:54:55.965Z,27.80
2023-03-21T15:57:34.010Z,27.60
2023-03-21T16:00:41.958Z,27.60
2023-03-21T16:03:28.755Z,27.70
2023-03-21T16:06:19.142Z,27.90
2023-03-21T16:09:14.129Z,27.90
2023-03-21T16:11:59.463Z,28.00
2023-03-21T16:14:34.295Z,28.10
2023-03-21T16:17:27.374Z,28.30
2023-03-21T16:20:02.224Z,28.40
2023-03-21T16:22:37.181Z,28.40
2023-03-21T16:25:12.154Z,28.40
2023-03-21T16:27:47.641Z,28.40
2023-03-21T16:30:23.380Z,28.50
2023-03-21T16:32:58.271Z,28.60
2023-03-21T16:35:33.177Z,28.90
2023-03-21T16:38:10.314Z,29.00
2023-03-21T16:40:45.152Z,29.50
2023-03-21T16:43:20.485Z,29.60
2023-03-21T16:45:55.613Z,29.70
2023-03-21T16:48:30.589Z,29.80
2023-03-21T16:51:05.861Z,29.50
2023-03-21T16:53:40.809Z,29.60
2023-03-21T16:56:25.401Z,29.60
2023-03-21T16:59:00.220Z,29.90
2023-03-21T17:01:38.309Z,29.90
2023-03-21T17:04:15.994Z,29.90
2023-03-21T17:06:54.437Z,30.00
2023-03-21T17:09:29.409Z,30.00
2023-03-21T17:12:10.220Z,30.10
2023-03-21T17:14:45.945Z,30.20
2023-03-21T17:17:21.582Z,30.10
2023-03-21T17:19:56.567Z,30.30
2023-03-21T17:22:31.446Z,30.40
2023-03-21T17:25:06.443Z,30.60
2023-03-21T17:27:41.878Z,30.60
2023-03-21T17:30:24.298Z,30.50
2023-03-21T17:32:59.461Z,30.60
2023-03-21T17:35:34.397Z,30.90
2023-03-21T17:38:16.757Z,31.00
2023-03-21T17:40:51.679Z,31.00
2023-03-21T17:43:26.562Z,30.70
2023-03-21T17:46:01.535Z,30.70
2023-03-21T17:48:36.679Z,30.50
2023-03-21T17:51:15.825Z,30.70
2023-03-21T17:53:51.372Z,30.80
2023-03-21T17:56:32.104Z,31.00
2023-03-21T17:59:11.921Z,30.90
2023-03-21T18:01:47.372Z,31.00
2023-03-21T18:04:22.286Z,31.30
2023-03-21T18:06:59.831Z,31.20
2023-03-21T18:09:35.573Z,31.30
2023-03-21T18:12:10.754Z,31.30
2023-03-21T18:14:45.676Z,31.40
2023-03-21T18:17:21.343Z,31.40
2023-03-21T18:19:57.209Z,31.40
2023-03-21T18:22:32.130Z,31.40
2023-03-21T18:25:08.008Z,31.50
2023-03-21T18:28:06.967Z,31.60
2023-03-21T18:31:07.119Z,31.40
2023-03-21T18:33:34.218Z,31.80
2023-03-21T18:36:10.327Z,31.90
2023-03-21T18:38:46.032Z,32.00
2023-03-21T18:41:22.730Z,32.00
2023-03-21T18:44:02.987Z,31.90
2023-03-21T18:46:50.219Z,31.40
2023-03-21T18:50:05.952Z,31.50
2023-03-21T18:52:20.790Z,31.60
2023-03-21T18:54:55.701Z,31.80
2023-03-21T18:57:36.978Z,32.30
2023-03-21T19:00:17.225Z,31.90
2023-03-21T19:03:04.034Z,31.90
2023-03-21T19:05:45.424Z,31.90
2023-03-21T19:08:20.413Z,31.90
2023-03-21T19:10:59.582Z,31.90
2023-03-21T19:13:36.392Z,32.00
2023-03-21T19:16:11.778Z,32.10
2023-03-21T19:18:54.864Z,32.30
2023-03-21T19:21:31.689Z,32.40
2023-03-21T19:24:26.414Z,32.50
2023-03-21T19:27:04.078Z,32.50
2023-03-21T19:29:39.017Z,32.50
2023-03-21T19:32:13.988Z,32.40
2023-03-21T19:34:48.993Z,32.30
2023-03-21T19:37:23.890Z,32.30
2023-03-21T19:39:58.816Z,32.50
2023-03-21T19:42:36.216Z,32.60
2023-03-21T19:45:12.077Z,32.70
2023-03-21T19:47:47.022Z,32.90
2023-03-21T19:50:49.239Z,32.90
2023-03-21T19:53:23.498Z,33.00
2023-03-21T19:56:03.479Z,33.00
2023-03-21T19:58:38.680Z,33.20
2023-03-21T20:01:13.824Z,33.20
2023-03-21T20:03:48.792Z,33.20
2023-03-21T20:06:24.029Z,33.30
2023-03-21T20:09:47.318Z,33.30
2023-03-21T20:11:54.486Z,33.30
2023-03-21T20:14:29.379Z,33.30
2023-03-21T20:17:04.480Z,33.30
2023-03-21T20:19:39.459Z,33.10
2023-03-21T20:22:24.522Z,33.10
2023-03-21T20:25:05.234Z,33.20
2023-03-21T20:27:42.047Z,33.20
2023-03-21T20:30:18.932Z,33.30
2023-03-21T20:32:54.521Z,33.30
2023-03-21T20:36:17.839Z,33.40
2023-03-21T20:38:24.924Z,33.50
2023-03-21T20:41:02.540Z,33.70
2023-03-21T20:46:32.931Z,33.80
2023-03-21T20:49:08.096Z,33.80
2023-03-21T20:54:38.630Z,33.80
2023-03-21T20:57:13.626Z,33.90
2023-03-21T20:59:48.503Z,34.00
2023-03-21T21:02:24.533Z,34.00
2023-03-21T21:05:24.670Z,34.00
2023-03-21T21:07:54.382Z,34.00
2023-03-21T21:10:29.723Z,34.10
2023-03-21T21:13:07.352Z,34.00
2023-03-21T21:15:42.263Z,34.10
2023-03-21T21:18:17.199Z,34.00
2023-03-21T21:20:56.579Z,34.10
2023-03-21T21:23:37.006Z,34.20
2023-03-21T21:26:13.026Z,34.10
2023-03-21T21:28:48.160Z,34.40
2023-03-21T21:31:23.136Z,34.40
2023-03-21T21:33:59.043Z,34.50
2023-03-21T21:36:33.950Z,34.40
2023-03-21T21:39:09.374Z,34.50
2023-03-21T21:41:44.278Z,34.50
2023-03-21T21:44:19.696Z,34.50
2023-03-21T21:46:54.797Z,34.60
2023-03-21T21:49:29.896Z,34.50
2023-03-21T21:52:05.084Z,34.60
2023-03-21T21:54:45.439Z,34.60
2023-03-21T21:57:20.361Z,34.70
2023-03-21T21:59:55.247Z,34.80
2023-03-21T22:02:30.207Z,34.80
2023-03-21T22:05:05.721Z,35.00
2023-03-21T22:07:40.629Z,35.00
2023-03-21T22:10:16.219Z,35.20
2023-03-21T22:12:51.293Z,35.30
2023-03-21T22:15:26.596Z,35.40
2023-03-21T22:18:01.524Z,35.40
2023-03-21T22:20:36.838Z,35.60
2023-03-21T22:23:12.427Z,35.50
2023-03-21T22:25:51.711Z,35.50
2023-03-21T22:28:26.668Z,35.40
2023-03-21T22:31:13.956Z,35.40
2023-03-21T22:33:49.841Z,35.30
2023-03-21T22:36:24.958Z,35.30
2023-03-21T22:39:00.392Z,35.20
2023-03-21T22:41:35.219Z,35.30
2023-03-21T22:44:10.675Z,35.30
2023-03-21T22:46:45.778Z,35.30
2023-03-21T22:49:20.701Z,35.40
2023-03-21T22:51:55.580Z,35.30
2023-03-21T22:54:31.179Z,35.40
2023-03-21T22:57:06.734Z,35.30
2023-03-21T22:59:41.623Z,35.30
2023-03-21T23:02:17.634Z,35.40
2023-03-21T23:04:52.554Z,35.50
2023-03-21T23:07:27.385Z,35.50
2023-03-21T23:10:02.455Z,35.60
2023-03-21T23:12:37.625Z,35.50
2023-03-21T23:15:12.534Z,35.70
2023-03-21T23:17:47.970Z,35.70
2023-03-21T23:20:22.869Z,35.80
2023-03-21T23:22:58.604Z,35.90
2023-03-21T23:25:33.609Z,36.00
2023-03-21T23:28:08.575Z,36.10
2023-03-21T23:30:43.663Z,36.10
2023-03-21T23:33:21.819Z,36.30
2023-03-21T23:35:56.942Z,36.50
2023-03-21T23:38:32.458Z,36.50
2023-03-21T23:41:14.084Z,36.50
2023-03-21T23:43:49.428Z,36.60
2023-03-21T23:46:24.454Z,36.60
2023-03-21T23:48:59.390Z,36.70
2023-03-21T23:51:34.256Z,37.10
2023-03-21T23:54:09.788Z,36.80
2023-03-21T23:56:44.935Z,36.90
2023-03-21T23:59:19.817Z,37.10
